Time;durP1;ratioP1;P1;durP2;ratioP2;P2;SDS_P1;SDS_P2;PMS_P1;PMS_P2;Temp;Humidity;BMP_temperature;BMP_pressure;BME280_temperature;BME280_humidity;BME280_pressure;Samples;Min_cycle;Max_cycle;Signal;HPM_P1;HPM_P2
2023/04/01 00:01:14;;;;;;;8.68;4.72;;;;;;;;;;6293719;28;20047;-76
2023/04/01 00:04:15;;;;;;;8.17;4.73;;;;;;;;;;6289863;28;20025;-76
2023/04/01 00:07:15;;;;;;;14.93;5.63;;;;;;;;;;6286098;28;20016;-76
2023/04/01 00:10:15;;;;;;;20.13;8.07;;;;;;;;;;6291096;28;20025;-76
2023/04/01 00:13:16;;;;;;;15.53;6.70;;;;;;;;;;6289202;28;20462;-76
2023/04/01 00:16:16;;;;;;;13.73;6.20;;;;;;;;;;6294297;28;20016;-76
2023/04/01 00:19:17;;;;;;;14.40;6.37;;;;;;;;;;6291798;28;20562;-76
2023/04/01 00:22:17;;;;;;;8.97;4.80;;;;;;;;;;6293023;28;20508;-76
2023/04/01 00:25:18;;;;;;;14.90;5.57;;;;;;;;;;6291778;28;20123;-76
2023/04/01 00:28:19;;;;;;;13.23;5.77;;;;;;;;;;6290709;28;20021;-77
2023/04/01 00:31:20;;;;;;;16.38;5.63;;;;;;;;;;6295246;28;20020;-76
2023/04/01 00:34:20;;;;;;;13.03;6.43;;;;;;;;;;6291139;28;20028;-76
2023/04/01 00:37:21;;;;;;;13.77;5.10;;;;;;;;;;6289887;28;20028;-76
2023/04/01 00:40:26;;;;;;;11.10;6.67;;;;;;;;;;6290324;28;20028;-76
2023/04/01 00:43:26;;;;;;;11.02;5.28;;;;;;;;;;6294488;28;20016;-76
2023/04/01 00:46:27;;;;;;;8.67;4.90;;;;;;;;;;6294345;28;20107;-76
2023/04/01 00:49:30;;;;;;;10.50;4.77;;;;;;;;;;6292993;28;20433;-76
2023/04/01 00:52:31;;;;;;;10.00;4.57;;;;;;;;;;6291228;28;20103;-76
2023/04/01 00:55:33;;;;;;;10.00;5.50;;;;;;;;;;6293648;28;20050;-76
2023/04/01 00:58:33;;;;;;;;;;;;;;;;;;6294396;28;20028;-76
2023/04/01 01:01:35;;;;;;;11.63;5.22;;;;;;;;;;6288637;28;19920;-76
2023/04/01 01:04:35;;;;;;;9.65;4.47;;;;;;;;;;6288880;28;20025;-76
2023/04/01 01:07:42;;;;;;;12.17;5.83;;;;;;;;;;6289271;28;20378;-76
2023/04/01 01:10:47;;;;;;;16.67;6.57;;;;;;;;;;6272917;28;20025;-76
2023/04/01 01:13:58;;;;;;;14.35;7.60;;;;;;;;;;6274655;28;20031;-76
2023/04/01 01:17:00;;;;;;;14.52;7.65;;;;;;;;;;6289251;28;20104;-76
2023/04/01 01:20:10;;;;;;;16.52;8.02;;;;;;;;;;6292592;28;20008;-76
2023/04/01 01:23:16;;;;;;;9.45;5.35;;;;;;;;;;6284927;28;20047;-76
2023/04/01 01:26:29;;;;;;;14.65;6.32;;;;;;;;;;6292674;28;20120;-76
2023/04/01 01:29:49;;;;;;;16.92;6.55;;;;;;;;;;6290316;28;20044;-77
2023/04/01 01:33:04;;;;;;;12.45;6.13;;;;;;;;;;6248768;28;20025;-76
2023/04/01 01:36:06;;;;;;;10.13;4.95;;;;;;;;;;6269935;28;20506;-76
2023/04/01 01:39:06;;;;;;;;;;;;;;;;;;6293302;28;20027;-76
2023/04/01 01:42:08;;;;;;;11.40;5.45;;;;;;;;;;6292174;28;19904;-76
2023/04/01 01:45:10;;;;;;;11.32;5.38;;;;;;;;;;6291402;28;20067;-76
2023/04/01 01:48:10;;;;;;;12.75;6.85;;;;;;;;;;6292407;28;20021;-76
2023/04/01 01:51:11;;;;;;;13.23;7.00;;;;;;;;;;6292183;28;20450;-76
2023/04/01 01:54:12;;;;;;;13.67;7.57;;;;;;;;;;6284045;28;20039;-76
2023/04/01 01:57:13;;;;;;;12.90;6.73;;;;;;;;;;6281781;28;20402;-76
2023/04/01 02:00:14;;;;;;;13.35;6.50;;;;;;;;;;6291633;28;20089;-76
2023/04/01 02:03:15;;;;;;;13.57;8.27;;;;;;;;;;6287781;28;20032;-76
2023/04/01 02:06:17;;;;;;;14.90;7.00;;;;;;;;;;6291169;28;20099;-76
2023/04/01 02:09:17;;;;;;;;;;;;;;;;;;6293615;28;20021;-76
2023/04/01 02:12:18;;;;;;;16.65;6.80;;;;;;;;;;6289435;28;19912;-76
2023/04/01 02:15:21;;;;;;;13.13;7.00;;;;;;;;;;6290048;28;20024;-76
2023/04/01 02:18:24;;;;;;;9.75;5.68;;;;;;;;;;6289487;28;20457;-76
2023/04/01 02:21:28;;;;;;;15.25;7.13;;;;;;;;;;6290866;28;20036;-76
2023/04/01 02:24:30;;;;;;;12.40;6.90;;;;;;;;;;6292413;28;20394;-76
2023/04/01 02:27:32;;;;;;;17.83;9.02;;;;;;;;;;6274019;28;20516;-76
2023/04/01 02:30:34;;;;;;;15.20;7.40;;;;;;;;;;6289064;28;20104;-76
2023/04/01 02:33:34;;;;;;;17.30;7.15;;;;;;;;;;6289563;28;20017;-76
2023/04/01 02:36:36;;;;;;;15.20;7.73;;;;;;;;;;6287435;28;20020;-76
2023/04/01 02:39:36;;;;;;;15.02;7.97;;;;;;;;;;6290458;28;20500;-76
2023/04/01 02:42:36;;;;;;;18.97;8.50;;;;;;;;;;6290949;28;20012;-76
2023/04/01 02:45:37;;;;;;;13.60;6.67;;;;;;;;;;6295364;28;20023;-76
2023/04/01 02:48:37;;;;;;;11.73;5.90;;;;;;;;;;6291609;28;20012;-76
2023/04/01 02:51:37;;;;;;;13.20;6.93;;;;;;;;;;6296425;28;20012;-76
2023/04/01 02:54:38;;;;;;;10.67;5.30;;;;;;;;;;6277819;28;20020;-76
2023/04/01 02:57:38;;;;;;;13.07;5.67;;;;;;;;;;6296959;28;20050;-76
2023/04/01 03:00:39;;;;;;;11.70;5.27;;;;;;;;;;6295381;28;20027;-76
2023/04/01 03:03:39;;;;;;;13.93;7.17;;;;;;;;;;6296910;28;20029;-76
2023/04/01 03:06:39;;;;;;;12.63;6.07;;;;;;;;;;6295474;28;20016;-76
2023/04/01 03:09:39;;;;;;;10.63;5.53;;;;;;;;;;6296965;28;20044;-76
2023/04/01 03:12:40;;;;;;;13.37;6.00;;;;;;;;;;6295523;28;20074;-76
2023/04/01 03:15:41;;;;;;;12.93;6.40;;;;;;;;;;6295854;28;20563;-76
2023/04/01 03:18:41;;;;;;;11.77;5.82;;;;;;;;;;6276466;28;20191;-77
2023/04/01 03:21:41;;;;;;;11.27;6.50;;;;;;;;;;6290583;28;20024;-76
2023/04/01 03:24:42;;;;;;;10.53;6.30;;;;;;;;;;6292970;28;20047;-76
2023/04/01 03:27:42;;;;;;;13.10;6.80;;;;;;;;;;6291973;28;20386;-76
2023/04/01 03:30:42;;;;;;;12.30;6.63;;;;;;;;;;6295212;28;20085;-76
2023/04/01 03:33:42;;;;;;;15.63;8.00;;;;;;;;;;6295786;28;20040;-77
2023/04/01 03:36:43;;;;;;;13.80;6.93;;;;;;;;;;6296420;28;20029;-77
2023/04/01 03:39:43;;;;;;;18.43;7.80;;;;;;;;;;6291856;28;20066;-77
2023/04/01 03:42:43;;;;;;;15.53;7.10;;;;;;;;;;6291207;28;20020;-76
2023/04/01 03:45:47;;;;;;;13.20;6.60;;;;;;;;;;6275652;28;20024;-76
2023/04/01 03:48:47;;;;;;;14.10;7.25;;;;;;;;;;6295348;28;20386;-76
2023/04/01 03:51:47;;;;;;;11.93;6.40;;;;;;;;;;6276282;28;20040;-76
2023/04/01 03:54:49;;;;;;;17.43;6.77;;;;;;;;;;6288818;28;20020;-76
2023/04/01 03:57:49;;;;;;;18.67;8.65;;;;;;;;;;6295003;28;20383;-77
2023/04/01 04:00:49;;;;;;;11.30;7.10;;;;;;;;;;6283091;28;20024;-76
2023/04/01 04:03:50;;;;;;;11.17;6.50;;;;;;;;;;6285981;28;20048;-76
2023/04/01 04:06:51;;;;;;;11.33;5.77;;;;;;;;;;6291715;28;20013;-76
2023/04/01 04:09:52;;;;;;;16.23;7.00;;;;;;;;;;6294363;28;20017;-77
2023/04/01 04:12:52;;;;;;;18.13;5.97;;;;;;;;;;6289452;28;20617;-77
2023/04/01 04:15:53;;;;;;;14.77;6.73;;;;;;;;;;6290011;28;20032;-77
2023/04/01 04:18:53;;;;;;;16.63;8.47;;;;;;;;;;6289095;28;20013;-76
2023/04/01 04:21:53;;;;;;;15.07;8.00;;;;;;;;;;6287388;28;20474;-77
2023/04/01 04:24:53;;;;;;;12.13;7.68;;;;;;;;;;6289183;28;20040;-77
2023/04/01 04:27:53;;;;;;;11.73;7.03;;;;;;;;;;6286816;28;20020;-76
2023/04/01 04:30:54;;;;;;;16.93;7.50;;;;;;;;;;6293765;28;20059;-77
2023/04/01 04:33:55;;;;;;;10.37;5.63;;;;;;;;;;6290609;28;20335;-77
2023/04/01 04:36:55;;;;;;;18.53;6.90;;;;;;;;;;6282121;28;20386;-77
2023/04/01 04:39:55;;;;;;;15.32;7.60;;;;;;;;;;6286733;28;20012;-76
2023/04/01 04:42:55;;;;;;;11.57;6.53;;;;;;;;;;6285143;28;20016;-77
2023/04/01 04:45:56;;;;;;;13.13;7.67;;;;;;;;;;6284462;28;20087;-77
2023/04/01 04:48:56;;;;;;;17.70;7.13;;;;;;;;;;6288186;28;20004;-77
2023/04/01 04:51:57;;;;;;;13.93;6.20;;;;;;;;;;6291670;28;20009;-76
2023/04/01 04:54:57;;;;;;;14.50;6.37;;;;;;;;;;6293417;28;20370;-76
2023/04/01 04:57:57;;;;;;;12.43;7.43;;;;;;;;;;6282921;28;20019;-76
2023/04/01 05:00:57;;;;;;;13.37;5.43;;;;;;;;;;6287691;28;20043;-76
2023/04/01 05:03:57;;;;;;;25.80;10.13;;;;;;;;;;6284480;28;20497;-76
2023/04/01 05:06:57;;;;;;;16.10;8.25;;;;;;;;;;6274751;28;20008;-76
2023/04/01 05:09:59;;;;;;;16.60;7.20;;;;;;;;;;6273122;28;20091;-76
2023/04/01 05:13:00;;;;;;;;;;;;;;;;;;6292658;28;20009;-77
2023/04/01 05:16:00;;;;;;;11.85;5.90;;;;;;;;;;6290651;28;19954;-77
2023/04/01 05:19:00;;;;;;;18.77;6.23;;;;;;;;;;6282437;28;20032;-77
2023/04/01 05:22:00;;;;;;;11.03;6.27;;;;;;;;;;6288422;28;20016;-77
2023/04/01 05:25:00;;;;;;;13.53;5.83;;;;;;;;;;6286469;28;20029;-77
2023/04/01 05:28:01;;;;;;;10.63;6.20;;;;;;;;;;6255391;28;20027;-77
2023/04/01 05:31:02;;;;;;;11.57;6.07;;;;;;;;;;6292415;28;20048;-77
2023/04/01 05:34:02;;;;;;;11.88;6.72;;;;;;;;;;6274845;28;20032;-77
2023/04/01 05:37:02;;;;;;;14.97;6.60;;;;;;;;;;6289777;28;20028;-76
2023/04/01 05:40:03;;;;;;;14.87;7.43;;;;;;;;;;6288186;28;20032;-77
2023/04/01 05:43:04;;;;;;;46.93;21.17;;;;;;;;;;6286791;28;20017;-77
2023/04/01 05:46:04;;;;;;;15.32;8.65;;;;;;;;;;6291024;28;20071;-77
2023/04/01 05:49:04;;;;;;;15.50;7.40;;;;;;;;;;6291076;28;20009;-77
2023/04/01 05:52:04;;;;;;;14.07;7.03;;;;;;;;;;6290550;28;20024;-77
2023/04/01 05:55:05;;;;;;;14.70;6.70;;;;;;;;;;6288714;28;20100;-77
2023/04/01 05:58:05;;;;;;;11.77;6.47;;;;;;;;;;6285648;28;20024;-77
2023/04/01 06:01:07;;;;;;;13.33;6.43;;;;;;;;;;6266926;28;20025;-77
2023/04/01 06:04:10;;;;;;;13.15;6.88;;;;;;;;;;6290961;28;20098;-77
2023/04/01 06:07:14;;;;;;;13.23;7.63;;;;;;;;;;6281735;28;20028;-77
2023/04/01 06:10:16;;;;;;;15.30;7.85;;;;;;;;;;6288257;28;20016;-77
2023/04/01 06:13:26;;;;;;;17.02;8.05;;;;;;;;;;6288008;28;20378;-77
2023/04/01 06:16:29;;;;;;;17.48;7.10;;;;;;;;;;6292386;28;20425;-77
2023/04/01 06:19:42;;;;;;;21.98;9.48;;;;;;;;;;6294696;28;20027;-77
2023/04/01 06:22:51;;;;;;;18.88;7.38;;;;;;;;;;6290933;28;20016;-77
2023/04/01 06:26:15;;;;;;;22.38;8.75;;;;;;;;;;6285364;28;20036;-77
2023/04/01 06:29:15;;;;;;;13.32;5.68;;;;;;;;;;6285933;28;20024;-77
2023/04/01 06:32:15;;;;;;;16.00;6.72;;;;;;;;;;6296264;28;20091;-77
2023/04/01 06:35:27;;;;;;;13.40;6.47;;;;;;;;;;6296428;28;20090;-77
2023/04/01 06:38:38;;;;;;;10.65;5.20;;;;;;;;;;6296873;28;20382;-77
2023/04/01 06:41:57;;;;;;;14.30;7.70;;;;;;;;;;6291493;28;20090;-77
2023/04/01 06:45:00;;;;;;;13.68;8.27;;;;;;;;;;6281582;28;20028;-77
2023/04/01 06:48:03;;;;;;;14.85;7.68;;;;;;;;;;6290244;28;20012;-77
2023/04/01 06:51:22;;;;;;;15.75;8.32;;;;;;;;;;6288742;28;20502;-77
2023/04/01 06:54:31;;;;;;;16.83;7.07;;;;;;;;;;6291001;28;20482;-77
2023/04/01 06:57:39;;;;;;;15.40;6.15;;;;;;;;;;6288903;28;20043;-77
2023/04/01 07:00:41;;;;;;;12.02;5.60;;;;;;;;;;6285085;28;20028;-77
2023/04/01 07:03:43;;;;;;;11.68;5.95;;;;;;;;;;6286794;28;20033;-76
2023/04/01 07:06:55;;;;;;;17.23;7.97;;;;;;;;;;6275293;28;20025;-76
2023/04/01 07:09:59;;;;;;;8.88;5.45;;;;;;;;;;6273658;28;20040;-77
2023/04/01 07:13:02;;;;;;;18.42;6.35;;;;;;;;;;6293513;28;20474;-76
2023/04/01 07:16:16;;;;;;;24.75;9.63;;;;;;;;;;6287266;28;20037;-76
2023/04/01 07:19:22;;;;;;;45.47;14.98;;;;;;;;;;6281878;28;20025;-76
2023/04/01 07:22:23;;;;;;;17.10;6.50;;;;;;;;;;6292444;28;20174;-76
2023/04/01 07:25:25;;;;;;;14.35;6.43;;;;;;;;;;6283495;28;20045;-77
2023/04/01 07:28:29;;;;;;;15.70;5.88;;;;;;;;;;6271873;28;20025;-76
2023/04/01 07:31:30;;;;;;;10.93;4.38;;;;;;;;;;6288556;28;20016;-76
2023/04/01 07:34:53;;;;;;;12.03;4.40;;;;;;;;;;6291627;28;20013;-76
2023/04/01 07:38:02;;;;;;;13.30;5.45;;;;;;;;;;6264725;28;20417;-76
2023/04/01 07:41:07;;;;;;;9.70;5.15;;;;;;;;;;6286355;28;20020;-76
2023/04/01 07:44:18;;;;;;;17.60;9.32;;;;;;;;;;6293496;28;20062;-76
2023/04/01 07:47:37;;;;;;;11.45;5.45;;;;;;;;;;6295576;28;20052;-76
2023/04/01 07:50:41;;;;;;;8.95;3.55;;;;;;;;;;6291229;28;20145;-76
2023/04/01 07:54:01;;;;;;;15.10;4.55;;;;;;;;;;6294539;28;20036;-76
2023/04/01 07:57:17;;;;;;;7.00;3.70;;;;;;;;;;6294737;28;20040;-76
2023/04/01 08:00:24;;;;;;;8.95;5.07;;;;;;;;;;6269775;28;20016;-76
2023/04/01 08:03:42;;;;;;;13.25;7.00;;;;;;;;;;6291893;28;20449;-76
2023/04/01 08:06:47;;;;;;;16.95;7.30;;;;;;;;;;6290788;28;20044;-75
2023/04/01 08:09:54;;;;;;;9.35;3.10;;;;;;;;;;6294896;28;20032;-76
2023/04/01 08:13:00;;;;;;;12.45;4.78;;;;;;;;;;6294568;28;20021;-75
2023/04/01 08:16:21;;;;;;;15.25;6.63;;;;;;;;;;6288584;28;20096;-75
2023/04/01 08:19:40;;;;;;;12.25;6.30;;;;;;;;;;6293587;28;20119;-75
2023/04/01 08:22:41;;;;;;;13.82;5.15;;;;;;;;;;6294293;28;20025;-75
2023/04/01 08:25:49;;;;;;;15.00;5.85;;;;;;;;;;6284305;28;20072;-76
2023/04/01 08:28:49;;;;;;;13.13;5.90;;;;;;;;;;6283273;28;20036;-76
2023/04/01 08:32:13;;;;;;;11.93;5.43;;;;;;;;;;6294328;28;20489;-76
2023/04/01 08:35:31;;;;;;;17.23;6.80;;;;;;;;;;6276566;28;20063;-76
2023/04/01 08:38:34;;;;;;;24.27;11.00;;;;;;;;;;6293475;28;20099;-75
2023/04/01 08:41:53;;;;;;;14.45;6.57;;;;;;;;;;6290507;28;20032;-75
2023/04/01 08:45:11;;;;;;;9.77;4.68;;;;;;;;;;6292764;28;20108;-75
2023/04/01 08:48:19;;;;;;;18.52;8.90;;;;;;;;;;6291154;28;20066;-75
2023/04/01 08:51:35;;;;;;;19.17;9.63;;;;;;;;;;6292794;28;20020;-75
2023/04/01 08:54:54;;;;;;;27.13;11.25;;;;;;;;;;6293639;28;20024;-75
2023/04/01 08:57:54;;;;;;;11.27;6.75;;;;;;;;;;6290708;28;20021;-75
2023/04/01 09:01:11;;;;;;;15.17;8.53;;;;;;;;;;6274455;28;20066;-75
2023/04/01 09:04:20;;;;;;;17.45;10.60;;;;;;;;;;6287316;28;20036;-75
2023/04/01 09:07:39;;;;;;;11.48;7.50;;;;;;;;;;6286112;28;20400;-75
2023/04/01 09:10:58;;;;;;;15.13;8.05;;;;;;;;;;6292647;28;20102;-76
2023/04/01 09:14:04;;;;;;;18.70;10.88;;;;;;;;;;6291951;28;20150;-76
2023/04/01 09:17:13;;;;;;;18.70;11.32;;;;;;;;;;6292594;28;20051;-76
2023/04/01 09:20:16;;;;;;;15.50;8.65;;;;;;;;;;6293094;28;20036;-76
2023/04/01 09:23:39;;;;;;;15.73;8.48;;;;;;;;;;6291811;28;20071;-75
2023/04/01 09:26:52;;;;;;;9.65;5.60;;;;;;;;;;6286255;28;20044;-76
2023/04/01 09:29:52;;;;;;;17.55;10.48;;;;;;;;;;6281793;28;20119;-76
2023/04/01 09:33:11;;;;;;;19.42;10.50;;;;;;;;;;6292823;28;20471;-76
2023/04/01 09:36:30;;;;;;;16.70;8.98;;;;;;;;;;6292612;28;20539;-76
2023/04/01 09:39:37;;;;;;;14.07;7.90;;;;;;;;;;6291264;28;20023;-75
2023/04/01 09:42:43;;;;;;;8.15;4.95;;;;;;;;;;6292898;28;20496;-74
2023/04/01 09:46:17;;;;;;;8.35;4.20;;;;;;;;;;6292918;28;20561;-76
2023/04/01 09:49:17;;;;;;;10.90;4.82;;;;;;;;;;6259384;28;20478;-76
2023/04/01 09:52:22;;;;;;;10.17;5.87;;;;;;;;;;6290708;28;20017;-76
2023/04/01 09:55:23;;;;;;;10.13;5.80;;;;;;;;;;6297685;28;20029;-77
2023/04/01 09:58:29;;;;;;;13.37;7.83;;;;;;;;;;6291419;28;20066;-76
2023/04/01 10:01:47;;;;;;;18.65;11.48;;;;;;;;;;6295944;28;20012;-76
2023/04/01 10:05:04;;;;;;;23.05;14.15;;;;;;;;;;6293455;28;20107;-76
2023/04/01 10:08:17;;;;;;;20.45;12.85;;;;;;;;;;6295460;28;20113;-76
2023/04/01 10:11:26;;;;;;;19.80;11.77;;;;;;;;;;6297698;28;20016;-76
2023/04/01 10:14:37;;;;;;;14.65;9.85;;;;;;;;;;6291246;28;20077;-76
2023/04/01 10:17:56;;;;;;;19.88;10.95;;;;;;;;;;6295198;28;20047;-75
2023/04/01 10:21:06;;;;;;;20.65;13.52;;;;;;;;;;6292619;28;20031;-76
2023/04/01 10:24:25;;;;;;;18.08;11.85;;;;;;;;;;6295007;28;20394;-76
2023/04/01 10:27:33;;;;;;;14.77;9.55;;;;;;;;;;6240506;28;20432;-76
2023/04/01 10:30:52;;;;;;;16.75;8.80;;;;;;;;;;6244052;28;20048;-76
2023/04/01 10:34:01;;;;;;;10.32;6.70;;;;;;;;;;6244946;28;20373;-76
2023/04/01 10:37:15;;;;;;;13.68;7.03;;;;;;;;;;6243412;28;20431;-76
2023/04/01 10:40:22;;;;;;;10.80;7.60;;;;;;;;;;6244313;28;20104;-75
2023/04/01 10:43:22;;;;;;;10.65;6.38;;;;;;;;;;6247827;28;20112;-75
2023/04/01 10:46:40;;;;;;;6.83;4.40;;;;;;;;;;6247157;28;20445;-75
2023/04/01 10:49:46;;;;;;;6.85;4.60;;;;;;;;;;6246933;28;20028;-76
2023/04/01 10:52:46;;;;;;;13.57;6.28;;;;;;;;;;6246946;28;20021;-76
2023/04/01 10:55:49;;;;;;;24.75;11.73;;;;;;;;;;6240302;28;20168;-76
2023/04/01 10:59:15;;;;;;;17.40;9.70;;;;;;;;;;6238714;28;20025;-76
2023/04/01 11:02:15;;;;;;;19.42;9.70;;;;;;;;;;6242814;28;20542;-76
2023/04/01 11:05:22;;;;;;;13.35;7.32;;;;;;;;;;6242131;28;20028;-76
2023/04/01 11:08:31;;;;;;;25.13;14.32;;;;;;;;;;6243544;28;20056;-76
2023/04/01 11:11:49;;;;;;;10.15;6.00;;;;;;;;;;6245962;28;20018;-76
2023/04/01 11:14:59;;;;;;;7.88;4.30;;;;;;;;;;6243812;28;20377;-76
2023/04/01 11:18:13;;;;;;;10.38;5.60;;;;;;;;;;6241369;28;20025;-73
2023/04/01 11:21:31;;;;;;;12.63;6.75;;;;;;;;;;6243718;28;20029;-75
2023/04/01 11:24:32;;;;;;;12.27;4.97;;;;;;;;;;6245834;28;20113;-76
2023/04/01 11:27:34;;;;;;;7.35;4.00;;;;;;;;;;6292685;28;20024;-76
2023/04/01 11:30:54;;;;;;;8.45;4.03;;;;;;;;;;6295529;28;20482;-76
2023/04/01 11:34:02;;;;;;;6.80;4.28;;;;;;;;;;6292903;28;20017;-76
2023/04/01 11:37:15;;;;;;;7.68;4.63;;;;;;;;;;6295579;28;20624;-76
2023/04/01 11:40:33;;;;;;;8.38;4.57;;;;;;;;;;6294656;28;20154;-76
2023/04/01 11:43:47;;;;;;;7.32;3.80;;;;;;;;;;6290121;28;20078;-76
2023/04/01 11:47:02;;;;;;;3.63;2.10;;;;;;;;;;6291322;28;20016;-76
2023/04/01 11:50:24;;;;;;;6.97;3.50;;;;;;;;;;6289403;28;20017;-76
2023/04/01 11:53:24;;;;;;;;;;;;;;;;;;6294183;28;20017;-76
2023/04/01 11:56:57;;;;;;;6.55;2.60;;;;;;;;;;6293917;28;19927;-76
2023/04/01 11:59:58;;;;;;;7.88;3.15;;;;;;;;;;6268187;28;20037;-76
2023/04/01 12:03:10;;;;;;;6.97;2.57;;;;;;;;;;6288196;28;20060;-76
2023/04/01 12:06:49;;;;;;;9.15;3.60;;;;;;;;;;6289425;28;20028;-76
2023/04/01 12:10:03;;;;;;;8.82;3.13;;;;;;;;;;6239112;28;20026;-76
2023/04/01 12:13:06;;;;;;;6.40;3.83;;;;;;;;;;6241395;28;20018;-76
2023/04/01 12:16:21;;;;;;;6.18;3.20;;;;;;;;;;6280047;28;20253;-76
2023/04/01 12:19:25;;;;;;;11.90;4.57;;;;;;;;;;6290148;28;20364;-76
2023/04/01 12:22:25;;;;;;;7.07;3.58;;;;;;;;;;6281921;28;20498;-77
2023/04/01 12:25:37;;;;;;;8.43;4.27;;;;;;;;;;6283219;28;20037;-77
2023/04/01 12:28:57;;;;;;;7.75;4.25;;;;;;;;;;6291366;28;20013;-77
2023/04/01 12:31:57;;;;;;;7.82;3.38;;;;;;;;;;6289780;28;20017;-77
2023/04/01 12:35:07;;;;;;;6.77;2.80;;;;;;;;;;6284046;28;20096;-76
2023/04/01 12:38:29;;;;;;;5.20;2.63;;;;;;;;;;6284958;28;20024;-76
2023/04/01 12:41:39;;;;;;;6.88;3.38;;;;;;;;;;6285371;28;20301;-76
2023/04/01 12:44:39;;;;;;;6.65;3.40;;;;;;;;;;6273235;28;20317;-77
2023/04/01 12:47:52;;;;;;;5.80;3.22;;;;;;;;;;6280625;28;20025;-76
2023/04/01 12:51:11;;;;;;;5.10;3.22;;;;;;;;;;6286526;28;20015;-77
2023/04/01 12:54:14;;;;;;;4.93;2.83;;;;;;;;;;6276009;28;20024;-77
2023/04/01 12:57:32;;;;;;;4.43;2.97;;;;;;;;;;6283262;28;20017;-77
2023/04/01 13:00:35;;;;;;;5.70;3.90;;;;;;;;;;6284857;28;20024;-77
2023/04/01 13:03:38;;;;;;;5.70;2.60;;;;;;;;;;6285996;28;20063;-77
2023/04/01 13:06:41;;;;;;;6.13;3.17;;;;;;;;;;6286974;28;20017;-77
2023/04/01 13:09:42;;;;;;;8.98;4.32;;;;;;;;;;6275596;28;20025;-77
2023/04/01 13:12:52;;;;;;;9.85;4.32;;;;;;;;;;6278904;28;20530;-77
2023/04/01 13:15:54;;;;;;;11.02;6.13;;;;;;;;;;6284671;28;20019;-77
2023/04/01 13:18:58;;;;;;;7.95;4.47;;;;;;;;;;6287025;28;20028;-77
2023/04/01 13:22:17;;;;;;;6.82;3.67;;;;;;;;;;6282604;28;20013;-76
2023/04/01 13:25:36;;;;;;;6.53;3.65;;;;;;;;;;6282107;28;20036;-76
2023/04/01 13:28:42;;;;;;;8.88;3.30;;;;;;;;;;6287252;28;20016;-77
2023/04/01 13:31:48;;;;;;;7.50;3.22;;;;;;;;;;6282891;28;20172;-77
2023/04/01 13:35:11;;;;;;;6.97;4.07;;;;;;;;;;6284808;28;20059;-76
2023/04/01 13:38:21;;;;;;;7.63;3.85;;;;;;;;;;6274428;28;20040;-77
2023/04/01 13:41:21;;;;;;;10.00;4.65;;;;;;;;;;6289286;28;20048;-77
2023/04/01 13:44:42;;;;;;;9.17;4.17;;;;;;;;;;6280194;28;20479;-77
2023/04/01 13:47:57;;;;;;;9.05;4.30;;;;;;;;;;6276002;28;20037;-77
2023/04/01 13:51:16;;;;;;;9.02;5.32;;;;;;;;;;6291221;28;20021;-77
2023/04/01 13:54:16;;;;;;;9.35;3.72;;;;;;;;;;6286771;28;20051;-77
2023/04/01 13:57:19;;;;;;;10.82;4.53;;;;;;;;;;6290255;28;20482;-77
2023/04/01 14:00:38;;;;;;;6.50;3.55;;;;;;;;;;6288881;28;20039;-77
2023/04/01 14:03:49;;;;;;;8.27;4.30;;;;;;;;;;6290994;28;20032;-77
2023/04/01 14:07:08;;;;;;;6.67;3.23;;;;;;;;;;6286922;28;20104;-77
2023/04/01 14:10:32;;;;;;;8.05;3.83;;;;;;;;;;6285708;28;20328;-77
2023/04/01 14:13:47;;;;;;;9.95;4.63;;;;;;;;;;6291453;28;20025;-77
2023/04/01 14:17:06;;;;;;;5.07;2.75;;;;;;;;;;6288937;28;20025;-77
2023/04/01 14:20:21;;;;;;;5.28;3.42;;;;;;;;;;6292362;28;20031;-77
2023/04/01 14:23:41;;;;;;;11.02;4.55;;;;;;;;;;6291700;28;20032;-77
2023/04/01 14:26:50;;;;;;;4.22;1.98;;;;;;;;;;6286012;28;20126;-77
2023/04/01 14:30:02;;;;;;;5.53;2.15;;;;;;;;;;6289160;28;20023;-77
2023/04/01 14:33:25;;;;;;;1.45;1.15;;;;;;;;;;6289431;28;20482;-77
2023/04/01 14:36:36;;;;;;;2.67;1.50;;;;;;;;;;6278947;28;20085;-78
2023/04/01 14:39:48;;;;;;;3.22;1.58;;;;;;;;;;6279116;28;20339;-77
2023/04/01 14:42:48;;;;;;;3.75;1.63;;;;;;;;;;6290454;28;20070;-77
2023/04/01 14:45:54;;;;;;;8.00;3.42;;;;;;;;;;6291361;28;20153;-77
2023/04/01 14:48:59;;;;;;;6.05;3.15;;;;;;;;;;6289991;28;20008;-77
2023/04/01 14:52:34;;;;;;;10.85;4.72;;;;;;;;;;6289249;28;20476;-77
2023/04/01 14:55:44;;;;;;;12.45;5.30;;;;;;;;;;6218174;28;20038;-76
2023/04/01 14:58:50;;;;;;;14.15;7.57;;;;;;;;;;6289994;28;20031;-77
2023/04/01 15:01:53;;;;;;;15.00;8.98;;;;;;;;;;6275927;28;20086;-77
2023/04/01 15:05:16;;;;;;;24.75;12.98;;;;;;;;;;6295689;28;20074;-77
2023/04/01 15:08:22;;;;;;;22.02;10.82;;;;;;;;;;6284418;28;20434;-75
2023/04/01 15:11:28;;;;;;;16.45;8.63;;;;;;;;;;6284250;28;20482;-76
2023/04/01 15:14:38;;;;;;;18.38;9.88;;;;;;;;;;6291135;28;20383;-76
2023/04/01 15:17:58;;;;;;;24.35;10.80;;;;;;;;;;6289786;28;20073;-76
2023/04/01 15:21:17;;;;;;;34.22;14.65;;;;;;;;;;6280619;28;20016;-76
2023/04/01 15:24:40;;;;;;;18.48;8.98;;;;;;;;;;6284534;28;20019;-76
2023/04/01 15:27:47;;;;;;;17.05;9.85;;;;;;;;;;6291654;28;20093;-76
2023/04/01 15:31:01;;;;;;;13.73;7.20;;;;;;;;;;6292267;28;20021;-76
2023/04/01 15:34:02;;;;;;;16.08;7.72;;;;;;;;;;6293000;28;20016;-76
2023/04/01 15:37:19;;;;;;;18.73;8.35;;;;;;;;;;6289173;28;20028;-75
2023/04/01 15:40:55;;;;;;;26.30;11.75;;;;;;;;;;6284468;28;20024;-75
2023/04/01 15:43:55;;;;;;;16.92;9.35;;;;;;;;;;6189793;28;20026;-76
2023/04/01 15:46:56;;;;;;;18.07;9.13;;;;;;;;;;6288613;28;20091;-76
2023/04/01 15:50:00;;;;;;;17.40;9.63;;;;;;;;;;6289287;28;20028;-75
2023/04/01 15:53:11;;;;;;;15.82;8.98;;;;;;;;;;6294243;28;20386;-75
2023/04/01 15:56:11;;;;;;;16.20;8.68;;;;;;;;;;6283502;28;20028;-75
2023/04/01 15:59:34;;;;;;;18.52;8.63;;;;;;;;;;6291678;28;20501;-75
2023/04/01 16:02:40;;;;;;;15.70;8.50;;;;;;;;;;6289164;28;20417;-75
2023/04/01 16:05:59;;;;;;;15.32;8.18;;;;;;;;;;6290744;28;20498;-75
2023/04/01 16:09:18;;;;;;;15.50;7.22;;;;;;;;;;6288988;28;20402;-75
2023/04/01 16:12:18;;;;;;;18.05;10.27;;;;;;;;;;6279329;28;20017;-75
2023/04/01 16:15:22;;;;;;;20.37;11.43;;;;;;;;;;6285807;28;20460;-75
2023/04/01 16:18:28;;;;;;;19.20;12.23;;;;;;;;;;6291878;28;20049;-75
2023/04/01 16:21:44;;;;;;;25.88;15.73;;;;;;;;;;6284746;28;20555;-76
2023/04/01 16:24:56;;;;;;;59.40;27.77;;;;;;;;;;6286191;28;20482;-75
2023/04/01 16:27:56;;;;;;;;;;;;;;;;;;6291313;28;20101;-76
2023/04/01 16:30:59;;;;;;;63.33;28.98;;;;;;;;;;6291144;28;20312;-75
2023/04/01 16:34:18;;;;;;;47.42;20.65;;;;;;;;;;6287019;28;20029;-75
2023/04/01 16:37:48;;;;;;;20.20;11.82;;;;;;;;;;6290431;28;20021;-76
2023/04/01 16:40:51;;;;;;;14.43;8.27;;;;;;;;;;6267992;28;20029;-75
2023/04/01 16:44:17;;;;;;;14.50;8.45;;;;;;;;;;6276583;28;20873;-76
2023/04/01 16:47:20;;;;;;;19.95;9.40;;;;;;;;;;6285904;28;20095;-76
2023/04/01 16:50:27;;;;;;;18.63;10.65;;;;;;;;;;6286090;28;20463;-76
2023/04/01 16:53:42;;;;;;;21.40;12.25;;;;;;;;;;6288122;28;20021;-76
2023/04/01 16:56:45;;;;;;;29.25;15.35;;;;;;;;;;6276532;28;20029;-76
2023/04/01 17:00:00;;;;;;;27.23;16.38;;;;;;;;;;6290130;28;20071;-75
2023/04/01 17:03:06;;;;;;;27.40;14.27;;;;;;;;;;6291088;28;20043;-75
2023/04/01 17:06:29;;;;;;;22.98;12.38;;;;;;;;;;6290872;28;20046;-75
2023/04/01 17:09:44;;;;;;;77.90;42.20;;;;;;;;;;6282369;28;20032;-76
2023/04/01 17:12:52;;;;;;;94.45;51.20;;;;;;;;;;6270626;28;20024;-76
2023/04/01 17:16:11;;;;;;;83.90;47.45;;;;;;;;;;6282644;28;20032;-76
2023/04/01 17:19:33;;;;;;;63.67;40.97;;;;;;;;;;6270795;28;20055;-75
2023/04/01 17:22:37;;;;;;;43.58;25.13;;;;;;;;;;6278742;28;20038;-76
2023/04/01 17:25:43;;;;;;;35.78;20.40;;;;;;;;;;6280597;28;20677;-76
2023/04/01 17:28:44;;;;;;;40.08;25.13;;;;;;;;;;6290959;28;20029;-76
2023/04/01 17:31:46;;;;;;;25.95;14.98;;;;;;;;;;6274527;28;20040;-76
2023/04/01 17:34:48;;;;;;;;;;;;;;;;;;6276972;28;20028;-76
2023/04/01 17:37:48;;;;;;;43.25;18.05;;;;;;;;;;6274499;28;20442;-76
2023/04/01 17:41:03;;;;;;;29.88;16.10;;;;;;;;;;6277737;28;20103;-76
2023/04/01 17:44:11;;;;;;;27.63;13.85;;;;;;;;;;6281790;28;20033;-76
2023/04/01 17:47:50;;;;;;;24.55;13.35;;;;;;;;;;6284875;28;20025;-76
2023/04/01 17:51:00;;;;;;;37.95;19.83;;;;;;;;;;6156030;28;20037;-76
2023/04/01 17:54:00;;;;;;;39.15;19.73;;;;;;;;;;6156561;28;20034;-76
2023/04/01 17:57:06;;;;;;;47.20;22.63;;;;;;;;;;6278430;28;20396;-76
2023/04/01 18:00:23;;;;;;;55.42;23.42;;;;;;;;;;6277298;28;20032;-76
2023/04/01 18:03:43;;;;;;;50.75;26.23;;;;;;;;;;6275171;28;20036;-76
2023/04/01 18:06:59;;;;;;;54.00;30.05;;;;;;;;;;6272271;28;20043;-77
2023/04/01 18:10:07;;;;;;;47.75;27.90;;;;;;;;;;6281427;28;20029;-76
2023/04/01 18:13:27;;;;;;;44.83;24.17;;;;;;;;;;6285406;28;20033;-76
2023/04/01 18:16:35;;;;;;;34.80;19.10;;;;;;;;;;6279868;28;20068;-76
2023/04/01 18:19:41;;;;;;;43.35;24.77;;;;;;;;;;6281801;28;20031;-76
2023/04/01 18:22:47;;;;;;;38.80;21.80;;;;;;;;;;6290481;28;20455;-77
2023/04/01 18:25:50;;;;;;;33.33;18.88;;;;;;;;;;6291542;28;20419;-76
2023/04/01 18:28:56;;;;;;;38.83;22.38;;;;;;;;;;6290065;28;20017;-76
2023/04/01 18:32:07;;;;;;;32.70;19.73;;;;;;;;;;6296524;28;20070;-76